Time;durP1;ratioP1;P1;durP2;ratioP2;P2;SDS_P1;SDS_P2;PMS_P1;PMS_P2;Temp;Humidity;BMP_temperature;BMP_pressure;BME280_temperature;BME280_humidity;BME280_pressure;Samples;Min_cycle;Max_cycle;Signal;HPM_P1;HPM_P2
2024/04/11 00:02:25;;;;;;;1999.90;999.90;;;13.00;99.90;;;;;;5526827;26;20008;-69
2024/04/11 00:04:50;;;;;;;1999.90;999.90;;;13.00;99.90;;;;;;5526816;26;19997;-69
2024/04/11 00:07:16;;;;;;;1999.90;999.90;;;13.00;99.90;;;;;;5526942;26;20012;-72
2024/04/11 00:09:41;;;;;;;1999.90;999.90;;;13.00;99.90;;;;;;5527309;26;20061;-72
2024/04/11 00:12:07;;;;;;;1999.90;999.90;;;13.10;99.90;;;;;;5526473;26;20326;-69
2024/04/11 00:14:33;;;;;;;1999.90;999.90;;;13.10;99.90;;;;;;5526501;26;19998;-69
2024/04/11 00:16:59;;;;;;;1999.90;999.90;;;13.10;99.90;;;;;;5526496;26;20013;-70
2024/04/11 00:19:24;;;;;;;1999.90;999.90;;;13.10;99.90;;;;;;5526115;26;19997;-72
2024/04/11 00:21:50;;;;;;;1999.90;999.90;;;13.10;99.90;;;;;;5526554;25;20069;-72
2024/04/11 00:24:16;;;;;;;1999.90;999.90;;;13.10;99.90;;;;;;5526243;26;20013;-71
2024/04/11 00:26:42;;;;;;;1999.90;999.90;;;13.10;99.90;;;;;;5526335;26;19993;-69
2024/04/11 00:29:09;;;;;;;1999.90;999.90;;;13.10;99.90;;;;;;5526629;26;20444;-69
2024/04/11 00:31:36;;;;;;;1999.90;999.90;;;13.10;99.90;;;;;;5526137;26;20004;-69
2024/04/11 00:34:16;;;;;;;1999.90;999.90;;;13.10;99.90;;;;;;5489650;26;19994;-72
2024/04/11 00:36:44;;;;;;;1999.90;999.90;;;13.10;99.90;;;;;;5490315;26;20078;-69
2024/04/11 00:39:16;;;;;;;1999.90;999.90;;;13.10;99.90;;;;;;5517199;26;19994;-69
2024/04/11 00:41:42;;;;;;;1999.90;999.90;;;13.10;99.90;;;;;;5490198;26;19994;-69
2024/04/11 00:44:07;;;;;;;1999.90;999.90;;;13.10;99.90;;;;;;5526451;26;20000;-72
2024/04/11 00:46:34;;;;;;;1999.90;999.90;;;13.10;99.90;;;;;;5526400;26;20018;-72
2024/04/11 00:49:00;;;;;;;1999.90;999.90;;;13.10;99.90;;;;;;5526467;26;20002;-69
2024/04/11 00:51:25;;;;;;;1999.90;999.90;;;13.10;99.90;;;;;;5520407;26;19994;-69
2024/04/11 00:53:53;;;;;;;1999.90;999.90;;;13.10;99.90;;;;;;5521931;26;20006;-69
2024/04/11 00:56:19;;;;;;;1999.90;999.90;;;13.10;99.90;;;;;;5526465;26;20000;-69
2024/04/11 00:58:45;;;;;;;1999.90;999.90;;;13.10;99.90;;;;;;5524457;26;20001;-72
2024/04/11 01:01:10;;;;;;;1999.90;999.90;;;13.10;99.90;;;;;;5525569;26;20406;-71
2024/04/11 01:03:36;;;;;;;1999.90;999.90;;;13.10;99.90;;;;;;5525814;26;20004;-69
2024/04/11 01:06:03;;;;;;;1999.90;999.90;;;13.10;99.90;;;;;;5525763;26;19993;-69
2024/04/11 01:08:29;;;;;;;1999.90;999.90;;;13.10;99.90;;;;;;5525846;26;20428;-69
2024/04/11 01:10:54;;;;;;;1999.90;999.90;;;13.10;99.90;;;;;;5525463;26;19997;-72
2024/04/11 01:13:20;;;;;;;1999.90;999.90;;;13.10;99.90;;;;;;5511210;26;20336;-72
2024/04/11 01:15:49;;;;;;;1999.90;999.90;;;13.20;99.90;;;;;;5526219;26;19993;-71
2024/04/11 01:18:14;;;;;;;1999.90;999.90;;;13.20;99.90;;;;;;5525967;26;20033;-69
2024/04/11 01:20:40;;;;;;;1999.90;999.90;;;13.20;99.90;;;;;;5525602;26;19994;-69
2024/04/11 01:23:08;;;;;;;1999.90;999.90;;;13.20;99.90;;;;;;5508247;26;19997;-71
2024/04/11 01:25:34;;;;;;;1999.90;999.90;;;13.20;99.90;;;;;;5488307;26;20456;-69
2024/04/11 01:28:00;;;;;;;1999.90;999.90;;;13.20;99.90;;;;;;5504397;26;19997;-69
2024/04/11 01:30:27;;;;;;;1999.90;999.90;;;13.20;99.90;;;;;;5525498;26;20377;-69
2024/04/11 01:33:00;;;;;;;1999.90;999.90;;;13.20;99.90;;;;;;5525435;26;20001;-69
2024/04/11 01:35:26;;;;;;;1999.90;999.90;;;13.20;99.90;;;;;;5525734;26;20022;-69
2024/04/11 01:37:52;;;;;;;1999.90;999.90;;;13.20;99.90;;;;;;5525332;26;20448;-72
2024/04/11 01:40:18;;;;;;;1999.90;999.90;;;13.20;99.90;;;;;;5525539;26;20037;-71
2024/04/11 01:42:44;;;;;;;1999.90;999.90;;;13.20;99.90;;;;;;5525381;26;20074;-69
2024/04/11 01:45:10;;;;;;;1999.90;999.90;;;13.20;99.90;;;;;;5525137;26;20003;-69
2024/04/11 01:47:38;;;;;;;1999.90;999.90;;;13.20;99.90;;;;;;5525507;26;20460;-69
2024/04/11 01:50:05;;;;;;;1999.90;999.90;;;13.20;99.90;;;;;;5525724;26;19993;-71
2024/04/11 01:52:30;;;;;;;1999.90;999.90;;;13.20;99.90;;;;;;5510722;26;19998;-68
2024/04/11 01:55:00;;;;;;;1999.90;999.90;;;13.20;99.90;;;;;;5523471;26;20005;-69
2024/04/11 01:57:26;;;;;;;1999.90;999.90;;;13.20;99.90;;;;;;5523500;26;20037;-69
2024/04/11 01:59:53;;;;;;;1999.90;999.90;;;13.20;99.90;;;;;;5525447;26;20004;-69
2024/04/11 02:02:19;;;;;;;1999.90;999.90;;;13.20;99.90;;;;;;5525773;26;20311;-71
2024/04/11 02:04:45;;;;;;;1999.90;999.90;;;13.20;99.90;;;;;;5523461;26;19994;-71
2024/04/11 02:07:11;;;;;;;1999.90;999.90;;;13.20;99.90;;;;;;5525239;26;20310;-69
2024/04/11 02:09:36;;;;;;;1999.90;999.90;;;13.20;99.90;;;;;;5524473;26;20021;-69
2024/04/11 02:12:02;;;;;;;1999.90;999.90;;;13.20;99.90;;;;;;5524980;26;19993;-69
2024/04/11 02:14:29;;;;;;;1999.90;999.90;;;13.20;99.90;;;;;;5525240;26;20470;-69
2024/04/11 02:16:56;;;;;;;1999.90;999.90;;;13.20;99.90;;;;;;5525669;26;19989;-72
2024/04/11 02:19:21;;;;;;;1999.90;999.90;;;13.20;99.90;;;;;;5525138;26;20034;-69
2024/04/11 02:21:48;;;;;;;1999.90;999.90;;;13.20;99.90;;;;;;5524834;26;20325;-69
2024/04/11 02:24:17;;;;;;;1999.90;999.90;;;13.20;99.90;;;;;;5518585;26;20389;-69
2024/04/11 02:26:48;;;;;;;1999.90;999.90;;;13.20;99.90;;;;;;5524586;26;20004;-69
2024/04/11 02:29:14;;;;;;;1999.90;999.90;;;13.30;99.90;;;;;;5524547;26;19997;-72
2024/04/11 02:31:42;;;;;;;1999.90;999.90;;;13.20;99.90;;;;;;5523967;26;20090;-71
2024/04/11 02:34:08;;;;;;;1999.90;999.90;;;13.20;99.90;;;;;;5524862;26;20012;-69
2024/04/11 02:36:34;;;;;;;1999.90;999.90;;;13.20;99.90;;;;;;5524625;26;19993;-69
2024/04/11 02:39:01;;;;;;;1999.90;999.90;;;13.20;99.90;;;;;;5524390;26;20001;-69
2024/04/11 02:41:28;;;;;;;1999.90;999.90;;;13.20;99.90;;;;;;5525198;26;20001;-71
2024/04/11 02:43:57;;;;;;;1999.90;999.90;;;13.20;99.90;;;;;;5523889;26;20026;-71
2024/04/11 02:46:25;;;;;;;1999.90;999.90;;;13.20;99.90;;;;;;5524400;26;20046;-69
2024/04/11 02:48:51;;;;;;;1999.90;999.90;;;13.20;99.90;;;;;;5524653;26;19997;-69
2024/04/11 02:51:20;;;;;;;1999.90;999.90;;;13.10;99.90;;;;;;5524167;26;20478;-69
2024/04/11 02:53:46;;;;;;;1999.90;999.90;;;13.10;99.90;;;;;;5506776;26;20069;-69
2024/04/11 02:56:12;;;;;;;1999.90;999.90;;;13.10;99.90;;;;;;5524437;26;20009;-71
2024/04/11 02:58:38;;;;;;;1999.90;999.90;;;13.00;99.90;;;;;;5524269;26;19997;-69
2024/04/11 03:01:09;;;;;;;1999.90;999.90;;;13.00;99.90;;;;;;5524537;26;19993;-71
2024/04/11 03:03:38;;;;;;;1999.90;999.90;;;13.00;99.90;;;;;;5524482;26;20398;-69
2024/04/11 03:06:17;;;;;;;1999.90;999.90;;;13.00;99.90;;;;;;5524252;26;20004;-69
2024/04/11 03:08:42;;;;;;;1999.90;999.90;;;13.10;99.90;;;;;;5524013;26;20477;-72
2024/04/11 03:11:11;;;;;;;1999.90;999.90;;;13.10;99.90;;;;;;5524027;26;20035;-69
2024/04/11 03:13:38;;;;;;;1999.90;999.90;;;13.00;99.90;;;;;;5524142;26;19997;-69
2024/04/11 03:16:05;;;;;;;1999.90;999.90;;;13.10;99.90;;;;;;5524425;26;19993;-69
2024/04/11 03:18:31;;;;;;;1999.90;999.90;;;13.10;99.90;;;;;;5524125;26;20002;-69
2024/04/11 03:20:59;;;;;;;1999.90;999.90;;;13.10;99.90;;;;;;5523863;25;20004;-71
2024/04/11 03:23:27;;;;;;;1999.90;999.90;;;13.10;99.90;;;;;;5511667;26;20015;-71
2024/04/11 03:25:53;;;;;;;1999.90;999.90;;;13.20;99.90;;;;;;5523580;26;19993;-69
2024/04/11 03:28:19;;;;;;;1999.90;999.90;;;13.20;99.90;;;;;;5523944;26;19998;-69
2024/04/11 03:30:55;;;;;;;1999.90;999.90;;;13.20;99.90;;;;;;5523850;26;20001;-69
2024/04/11 03:33:24;;;;;;;1999.90;999.90;;;13.10;99.90;;;;;;5523634;26;20083;-69
2024/04/11 03:35:58;;;;;;;1999.90;999.90;;;13.10;99.90;;;;;;5524093;26;20425;-72
2024/04/11 03:38:24;;;;;;;1999.90;999.90;;;13.20;99.90;;;;;;5515788;26;20454;-69
2024/04/11 03:41:04;;;;;;;1999.90;999.90;;;13.20;99.90;;;;;;5513408;26;20002;-69
2024/04/11 03:43:34;;;;;;;1999.90;999.90;;;13.20;99.90;;;;;;5523661;26;20128;-69
2024/04/11 03:46:19;;;;;;;1999.90;999.90;;;13.20;99.90;;;;;;5523568;25;19998;-69
2024/04/11 03:48:51;;;;;;;1999.90;999.90;;;13.20;99.90;;;;;;5523344;26;19997;-71
2024/04/11 03:51:22;;;;;;;1999.90;999.90;;;13.30;99.90;;;;;;5523396;26;20008;-69
2024/04/11 03:53:51;;;;;;;1999.90;999.90;;;13.30;99.90;;;;;;5501952;26;20008;-68
2024/04/11 03:56:21;;;;;;;1999.90;999.90;;;13.30;99.90;;;;;;5523325;26;19997;-69
2024/04/11 03:58:47;;;;;;;1999.90;999.90;;;13.30;99.90;;;;;;5522850;26;19998;-69
2024/04/11 04:01:14;;;;;;;1999.90;999.90;;;13.30;99.90;;;;;;5522670;26;20008;-69
2024/04/11 04:03:47;;;;;;;1999.90;999.90;;;13.30;99.90;;;;;;5523809;26;19993;-69
2024/04/11 04:06:13;;;;;;;1999.90;999.90;;;13.30;99.90;;;;;;5523756;26;20425;-69
2024/04/11 04:08:46;;;;;;;1999.90;999.90;;;13.30;99.90;;;;;;5522771;26;20001;-69
2024/04/11 04:11:20;;;;;;;1999.90;999.90;;;13.30;99.90;;;;;;5523027;26;20005;-69
2024/04/11 04:13:47;;;;;;;1999.90;999.90;;;13.30;99.90;;;;;;5523180;26;20009;-69
2024/04/11 04:16:16;;;;;;;1999.90;999.90;;;13.30;99.90;;;;;;5523147;26;20001;-72
2024/04/11 04:18:46;;;;;;;1999.90;999.90;;;13.30;99.90;;;;;;5522516;26;19998;-69
2024/04/11 04:21:16;;;;;;;1999.90;999.90;;;13.40;99.90;;;;;;5522792;26;19994;-69
2024/04/11 04:23:43;;;;;;;1999.90;999.90;;;13.40;99.90;;;;;;5523021;25;20061;-69
2024/04/11 04:26:12;;;;;;;1999.90;999.90;;;13.40;99.90;;;;;;5522273;26;20009;-69
2024/04/11 04:28:39;;;;;;;1999.90;999.90;;;13.30;99.90;;;;;;5522471;25;20002;-71
2024/04/11 04:31:16;;;;;;;1999.90;999.90;;;13.30;99.90;;;;;;5522552;26;19997;-69
2024/04/11 04:33:47;;;;;;;1999.90;999.90;;;13.30;99.90;;;;;;5523998;26;20008;-69
2024/04/11 04:36:20;;;;;;;1999.90;999.90;;;13.30;99.90;;;;;;5526087;26;20002;-69
2024/04/11 04:38:46;;;;;;;;;;;13.30;99.90;;;;;;5527103;25;20009;-72
2024/04/11 04:41:12;;;;;;;1999.90;999.90;;;13.30;99.90;;;;;;5526195;26;19992;-72
2024/04/11 04:43:39;;;;;;;1999.90;999.90;;;13.30;99.90;;;;;;5526324;25;20005;-69
2024/04/11 04:46:05;;;;;;;1999.90;999.90;;;13.20;99.90;;;;;;5527029;26;20193;-69
2024/04/11 04:48:32;;;;;;;1999.90;999.90;;;13.30;99.90;;;;;;5525785;26;20062;-72
2024/04/11 04:50:59;;;;;;;1999.90;999.90;;;13.30;99.90;;;;;;5525981;26;20017;-69
2024/04/11 04:53:25;;;;;;;1999.90;999.90;;;13.30;99.90;;;;;;5500715;26;20440;-69
2024/04/11 04:55:52;;;;;;;1999.90;999.90;;;13.30;99.90;;;;;;5526428;26;20004;-68
2024/04/11 04:58:19;;;;;;;1999.90;999.90;;;13.30;99.90;;;;;;5526164;26;19993;-69
2024/04/11 05:00:45;;;;;;;1999.90;999.90;;;13.30;99.90;;;;;;5526310;26;20408;-72
2024/04/11 05:03:12;;;;;;;1999.90;999.90;;;13.30;99.90;;;;;;5525967;26;20349;-69
2024/04/11 05:05:38;;;;;;;1999.90;999.90;;;13.30;99.90;;;;;;5517698;26;20005;-69
2024/04/11 05:08:07;;;;;;;1999.90;999.90;;;13.30;99.90;;;;;;5521953;26;20320;-71
2024/04/11 05:10:34;;;;;;;1999.90;999.90;;;13.30;99.90;;;;;;5525325;26;20452;-70
2024/04/11 05:13:01;;;;;;;1999.90;999.90;;;13.30;99.90;;;;;;5539619;25;20011;-69
2024/04/11 05:15:27;;;;;;;1999.90;999.90;;;13.30;99.90;;;;;;5532834;25;20008;-69
2024/04/11 05:17:54;;;;;;;1999.90;999.90;;;13.30;99.90;;;;;;5526213;26;20068;-69
2024/04/11 05:20:27;;;;;;;1999.90;999.90;;;13.30;99.90;;;;;;5525439;26;20316;-72
2024/04/11 05:22:53;;;;;;;1999.90;999.90;;;13.30;99.90;;;;;;5511615;26;19998;-68
2024/04/11 05:25:19;;;;;;;1999.90;999.90;;;13.40;99.90;;;;;;5514961;26;20008;-69
2024/04/11 05:27:46;;;;;;;1999.90;999.90;;;13.30;99.90;;;;;;5516715;26;20307;-69
2024/04/11 05:30:12;;;;;;;1999.90;999.90;;;13.40;99.90;;;;;;5514349;26;20049;-72
2024/04/11 05:32:46;;;;;;;1999.90;999.90;;;13.40;99.90;;;;;;5525724;26;20017;-68
2024/04/11 05:35:13;;;;;;;1999.90;999.90;;;13.40;99.90;;;;;;5515294;25;20001;-69
2024/04/11 05:37:45;;;;;;;1999.90;999.90;;;13.40;99.90;;;;;;5507001;26;19997;-69
2024/04/11 05:40:14;;;;;;;1999.90;999.90;;;13.40;99.90;;;;;;5524902;26;20432;-69
2024/04/11 05:42:44;;;;;;;1999.90;999.90;;;13.40;99.90;;;;;;5497836;25;20615;-69
2024/04/11 05:45:17;;;;;;;1999.90;999.90;;;13.50;99.90;;;;;;5500066;25;20264;-69
2024/04/11 05:47:51;;;;;;;1999.90;999.90;;;13.50;99.90;;;;;;5507481;26;20066;-69
2024/04/11 05:50:17;;;;;;;1999.90;999.90;;;13.50;99.90;;;;;;5502929;26;20008;-69
2024/04/11 05:52:43;;;;;;;1999.90;999.90;;;13.60;99.90;;;;;;5544759;25;20000;-69
2024/04/11 05:55:10;;;;;;;1999.90;999.90;;;13.60;99.90;;;;;;5523212;25;20081;-69
2024/04/11 05:57:38;;;;;;;1999.90;999.90;;;13.60;99.90;;;;;;5553477;25;19993;-72
2024/04/11 06:00:08;;;;;;;1999.90;999.90;;;13.70;99.90;;;;;;5512612;26;19994;-72
2024/04/11 06:02:38;;;;;;;1999.90;999.90;;;13.70;99.90;;;;;;5495202;26;19997;-69
2024/04/11 06:05:07;;;;;;;1999.90;999.90;;;13.70;99.90;;;;;;5524150;26;20069;-69
2024/04/11 06:07:35;;;;;;;1999.90;999.90;;;13.70;99.90;;;;;;5523452;26;20417;-69
2024/04/11 06:10:04;;;;;;;1999.90;999.90;;;13.70;99.90;;;;;;5514774;26;20390;-72
2024/04/11 06:12:31;;;;;;;1999.90;999.90;;;13.80;99.90;;;;;;5500430;25;20020;-72
2024/04/11 06:14:56;;;;;;;1999.90;999.90;;;13.80;99.90;;;;;;5517231;25;20117;-69
2024/04/11 06:17:22;;;;;;;1999.90;999.90;;;13.90;99.90;;;;;;5524199;26;20069;-69
2024/04/11 06:19:48;;;;;;;1999.90;999.90;;;13.90;99.90;;;;;;5526106;25;20003;-69
2024/04/11 06:22:16;;;;;;;1999.90;999.90;;;13.90;99.90;;;;;;5519737;26;19993;-72
2024/04/11 06:24:42;;;;;;;1999.90;999.90;;;14.00;99.90;;;;;;5513480;26;20020;-72
2024/04/11 06:27:08;;;;;;;1999.90;999.90;;;14.00;99.90;;;;;;5522526;26;19993;-69
2024/04/11 06:29:37;;;;;;;1999.90;999.90;;;14.00;99.90;;;;;;5523735;26;19997;-69
2024/04/11 06:32:06;;;;;;;1999.90;999.90;;;14.10;99.90;;;;;;5523934;25;20053;-69
2024/04/11 06:34:32;;;;;;;1999.90;999.90;;;14.10;99.90;;;;;;5522128;26;20336;-69
2024/04/11 06:36:58;;;;;;;1999.90;999.90;;;14.10;99.90;;;;;;5518929;26;19998;-72
2024/04/11 06:39:24;;;;;;;1999.90;999.90;;;14.10;99.90;;;;;;5532011;25;19996;-73
2024/04/11 06:41:50;;;;;;;1999.90;999.90;;;14.10;99.90;;;;;;5513500;26;20110;-70
2024/04/11 06:44:16;;;;;;;1999.90;999.90;;;14.20;99.90;;;;;;5527244;25;19993;-72
2024/04/11 06:46:45;;;;;;;1999.90;999.90;;;14.20;99.90;;;;;;5491607;26;20009;-68
2024/04/11 06:49:12;;;;;;;1999.90;999.90;;;14.30;99.90;;;;;;5515442;26;20008;-69
2024/04/11 06:51:39;;;;;;;1999.90;999.90;;;14.40;99.90;;;;;;5522051;25;20314;-71
2024/04/11 06:54:05;;;;;;;1999.90;999.90;;;14.40;99.90;;;;;;5510605;25;19998;-70
2024/04/11 06:56:31;;;;;;;1999.90;999.90;;;14.50;99.90;;;;;;5506304;26;20012;-68
2024/04/11 06:58:57;;;;;;;1999.90;999.90;;;14.50;99.90;;;;;;5508463;26;20041;-68
2024/04/11 07:01:23;;;;;;;1999.90;999.90;;;14.60;99.90;;;;;;5513250;25;20002;-71
2024/04/11 07:03:53;;;;;;;1999.90;999.90;;;14.80;99.90;;;;;;5512384;25;20016;-72
2024/04/11 07:06:22;;;;;;;1999.90;999.90;;;14.80;99.90;;;;;;5516134;25;19996;-68
2024/04/11 07:08:59;;;;;;;1999.90;999.90;;;14.70;99.90;;;;;;5527354;25;20430;-68
2024/04/11 07:11:32;;;;;;;1999.90;999.90;;;14.70;99.90;;;;;;5498345;25;20002;-69
2024/04/11 07:14:00;;;;;;;1999.90;999.90;;;14.70;99.90;;;;;;5515393;26;20073;-68
2024/04/11 07:16:32;;;;;;;1999.90;999.90;;;14.60;99.90;;;;;;5520105;26;20029;-71
2024/04/11 07:18:58;;;;;;;1999.90;999.90;;;14.60;99.90;;;;;;5526454;25;20002;-71
2024/04/11 07:21:30;;;;;;;1999.90;999.90;;;14.60;99.90;;;;;;5518494;26;20095;-69
2024/04/11 07:23:58;;;;;;;1999.90;999.90;;;14.60;99.90;;;;;;5510117;26;20449;-69
2024/04/11 07:26:29;;;;;;;1999.90;999.90;;;14.50;99.90;;;;;;5504441;26;20733;-69
2024/04/11 07:28:55;;;;;;;1999.90;999.90;;;14.50;99.90;;;;;;5501342;26;20016;-70
2024/04/11 07:31:21;;;;;;;1999.90;999.90;;;14.60;99.90;;;;;;5503505;26;20006;-70
2024/04/11 07:33:50;;;;;;;1999.90;999.90;;;14.50;99.90;;;;;;5507653;26;20009;-70
2024/04/11 07:36:22;;;;;;;1999.90;999.90;;;14.60;99.90;;;;;;5520856;26;20098;-69
2024/04/11 07:38:52;;;;;;;1999.90;999.90;;;14.50;99.90;;;;;;5517776;26;20316;-69
2024/04/11 07:41:19;;;;;;;1999.90;999.90;;;14.50;99.90;;;;;;5504129;26;20078;-71
2024/04/11 07:43:46;;;;;;;1999.90;999.90;;;14.60;99.90;;;;;;5520437;26;20424;-68
2024/04/11 07:46:15;;;;;;;1999.90;999.90;;;14.70;99.90;;;;;;5520989;26;20301;-69
2024/04/11 07:48:47;;;;;;;1999.90;999.90;;;14.80;99.90;;;;;;5520522;26;19997;-71
2024/04/11 07:51:16;;;;;;;1999.90;999.90;;;14.80;99.90;;;;;;5520251;26;20006;-68
2024/04/11 07:53:46;;;;;;;1999.90;999.90;;;14.70;99.90;;;;;;5519312;26;19993;-69
2024/04/11 07:56:20;;;;;;;1999.90;999.90;;;14.60;99.90;;;;;;5519829;26;20012;-71
2024/04/11 07:58:51;;;;;;;1999.90;999.90;;;14.70;99.90;;;;;;5505325;26;20029;-69
2024/04/11 08:01:16;;;;;;;1999.90;999.90;;;14.70;99.90;;;;;;5498457;25;20343;-70
2024/04/11 08:03:43;;;;;;;1999.90;999.90;;;14.80;99.90;;;;;;5494165;25;19998;-68
2024/04/11 08:06:10;;;;;;;1999.90;999.90;;;14.90;99.90;;;;;;5505058;25;20025;-69
2024/04/11 08:08:40;;;;;;;1999.90;999.90;;;15.30;99.90;;;;;;5506296;25;20007;-71
2024/04/11 08:11:06;;;;;;;1999.90;999.90;;;15.60;99.90;;;;;;5501725;25;19998;-69
2024/04/11 08:13:35;;;;;;;1999.90;999.90;;;15.90;99.90;;;;;;5503651;25;20041;-69
2024/04/11 08:16:01;;;;;;;1999.90;999.90;;;15.80;99.90;;;;;;5511422;26;20090;-69
2024/04/11 08:18:29;;;;;;;1999.90;999.90;;;15.80;99.90;;;;;;5517410;26;20014;-71
2024/04/11 08:20:55;;;;;;;1999.90;999.90;;;15.70;99.90;;;;;;5523177;25;20001;-69
2024/04/11 08:23:22;;;;;;;1999.90;999.90;;;15.90;99.90;;;;;;5523205;26;20013;-72
2024/04/11 08:25:52;;;;;;;1999.90;999.90;;;15.90;99.90;;;;;;5523446;25;20467;-68
2024/04/11 08:28:17;;;;;;;1999.90;999.90;;;15.70;99.90;;;;;;5504293;25;19997;-71
2024/04/11 08:30:47;;;;;;;1999.90;999.90;;;15.70;99.90;;;;;;5496817;25;19998;-68
2024/04/11 08:33:14;;;;;;;1999.90;999.90;;;15.60;99.90;;;;;;5504895;26;20053;-70
2024/04/11 08:35:44;;;;;;;1999.90;999.90;;;15.60;99.90;;;;;;5506927;26;20002;-71
2024/04/11 08:38:12;;;;;;;1999.90;999.90;;;15.50;99.90;;;;;;5485534;26;20080;-68
2024/04/11 08:40:40;;;;;;;1999.90;999.90;;;15.40;99.90;;;;;;5497573;25;20354;-70
2024/04/11 08:43:09;;;;;;;1999.90;999.90;;;15.40;99.90;;;;;;5507510;26;20090;-69
2024/04/11 08:45:35;;;;;;;1999.90;999.90;;;15.40;99.90;;;;;;5515939;25;20017;-71
2024/04/11 08:48:02;;;;;;;1999.90;999.90;;;15.30;99.90;;;;;;5493754;25;20009;-71
2024/04/11 08:50:29;;;;;;;1999.90;999.90;;;15.50;99.90;;;;;;5508172;26;19997;-68
2024/04/11 08:52:59;;;;;;;1999.90;999.90;;;15.50;99.90;;;;;;5522544;26;20001;-68
2024/04/11 08:55:26;;;;;;;1999.90;999.90;;;15.50;99.90;;;;;;5507180;25;20012;-71
2024/04/11 08:57:55;;;;;;;1999.90;999.90;;;15.60;99.90;;;;;;5504913;25;20006;-69
2024/04/11 09:00:21;;;;;;;1999.90;999.90;;;15.80;99.90;;;;;;5500778;25;20074;-69
2024/04/11 09:02:48;;;;;;;1999.90;999.90;;;15.90;99.90;;;;;;5513868;25;20002;-71
2024/04/11 09:05:17;;;;;;;1999.90;999.90;;;16.00;99.90;;;;;;5508715;26;20404;-71
2024/04/11 09:07:45;;;;;;;1999.90;999.90;;;16.30;99.90;;;;;;5507177;25;20001;-69
2024/04/11 09:10:13;;;;;;;1999.90;999.90;;;16.30;99.90;;;;;;5514927;25;20008;-69
2024/04/11 09:12:46;;;;;;;1999.90;999.90;;;16.40;99.90;;;;;;5513872;26;20274;-70
2024/04/11 09:15:15;;;;;;;1999.90;999.90;;;16.30;99.90;;;;;;5525129;25;20051;-68
2024/04/11 09:17:43;;;;;;;1999.90;999.90;;;16.00;99.90;;;;;;5522096;26;19993;-68
2024/04/11 09:20:13;;;;;;;1999.90;999.90;;;15.70;99.90;;;;;;5521907;26;20029;-68
2024/04/11 09:22:55;;;;;;;1999.90;999.90;;;15.60;99.90;;;;;;5521788;26;20512;-69
2024/04/11 09:25:26;;;;;;;1999.90;999.90;;;15.40;99.90;;;;;;5521192;26;20519;-72
2024/04/11 09:27:59;;;;;;;1999.90;999.90;;;15.40;99.90;;;;;;5521059;26;20428;-72
2024/04/11 09:30:29;;;;;;;1999.90;999.90;;;15.50;99.90;;;;;;5521154;26;20015;-68
2024/04/11 09:33:04;;;;;;;1999.90;999.90;;;15.70;99.90;;;;;;5521749;26;20065;-69
2024/04/11 09:35:35;;;;;;;1999.90;999.90;;;15.70;99.90;;;;;;5521443;26;20001;-69
2024/04/11 09:38:02;;;;;;;1999.90;999.90;;;15.40;99.90;;;;;;5522038;26;20001;-72
2024/04/11 09:40:33;;;;;;;1999.90;999.90;;;15.50;99.90;;;;;;5504574;26;19998;-68
2024/04/11 09:43:05;;;;;;;1999.90;999.90;;;15.70;99.90;;;;;;5507017;26;19994;-68
2024/04/11 09:45:37;;;;;;;1999.90;999.90;;;15.90;99.90;;;;;;5523067;25;20097;-70
2024/04/11 09:48:03;;;;;;;1999.90;999.90;;;15.80;99.90;;;;;;5503341;26;20030;-68
2024/04/11 09:50:30;;;;;;;1999.90;999.90;;;15.80;99.90;;;;;;5504493;26;20092;-71
2024/04/11 09:53:04;;;;;;;1999.90;999.90;;;15.90;99.90;;;;;;5506140;26;20401;-70
2024/04/11 09:55:36;;;;;;;1999.90;999.90;;;16.30;99.90;;;;;;5504279;26;19997;-68
2024/04/11 09:58:06;;;;;;;1999.90;999.90;;;16.50;99.90;;;;;;5500063;26;19994;-67
2024/04/11 10:03:22;;;;;;;1999.90;999.90;;;17.00;99.90;;;;;;5521391;26;20019;-69
2024/04/11 10:05:50;;;;;;;1999.90;999.90;;;17.10;99.90;;;;;;5516549;26;19997;-68
2024/04/11 10:08:33;;;;;;;1999.90;999.90;;;17.10;99.90;;;;;;5520217;26;20131;-68
2024/04/11 10:11:03;;;;;;;1999.90;999.90;;;17.00;99.90;;;;;;5521036;26;20008;-69
2024/04/11 10:13:39;;;;;;;1999.90;999.90;;;17.20;99.90;;;;;;5520378;26;20008;-69
2024/04/11 10:16:28;;;;;;;1999.90;999.90;;;16.70;99.90;;;;;;5520848;26;20450;-68
2024/04/11 10:19:04;;;;;;;1999.90;999.90;;;16.70;99.90;;;;;;5524663;25;20079;-71
2024/04/11 10:21:35;;;;;;;1999.90;999.90;;;16.70;99.90;;;;;;5520866;25;20001;-69
2024/04/11 10:24:17;;;;;;;1999.90;999.90;;;16.90;99.90;;;;;;5515515;26;20543;-68
2024/04/11 10:26:54;;;;;;;1999.90;999.90;;;17.00;99.90;;;;;;5520458;26;19993;-68
2024/04/11 10:29:20;;;;;;;1999.90;999.90;;;16.90;99.90;;;;;;5522483;25;20176;-68
2024/04/11 10:31:56;;;;;;;1999.90;999.90;;;17.00;99.90;;;;;;5518285;26;20530;-71
2024/04/11 10:34:45;;;;;;;1999.90;999.90;;;17.10;99.90;;;;;;5522956;25;20029;-68
2024/04/11 10:37:14;;;;;;;1999.90;999.90;;;16.90;99.90;;;;;;5520601;26;20101;-68
2024/04/11 10:39:40;;;;;;;1999.90;999.90;;;16.60;99.90;;;;;;5514463;26;20026;-68
2024/04/11 10:42:13;;;;;;;1999.90;999.90;;;16.80;99.90;;;;;;5512956;26;20354;-68
2024/04/11 10:44:39;;;;;;;1999.90;999.90;;;17.00;99.90;;;;;;5516067;25;20009;-71
2024/04/11 10:47:13;;;;;;;1999.90;999.90;;;17.50;99.90;;;;;;5521747;26;20007;-68
2024/04/11 10:49:42;;;;;;;1999.90;999.90;;;17.70;99.90;;;;;;5511095;26;20449;-69
2024/04/11 10:52:12;;;;;;;1999.90;999.90;;;18.10;99.90;;;;;;5520381;26;20012;-69
2024/04/11 10:54:43;;;;;;;1999.90;999.90;;;18.00;99.90;;;;;;5516971;26;19997;-68
2024/04/11 10:57:13;;;;;;;1999.90;999.90;;;18.10;99.90;;;;;;5512521;25;20077;-71
2024/04/11 10:59:50;;;;;;;1999.90;999.90;;;18.00;99.90;;;;;;5517928;25;20011;-71
2024/04/11 11:02:23;;;;;;;1999.90;999.90;;;17.70;99.90;;;;;;5518134;26;20320;-69
2024/04/11 11:04:54;;;;;;;1999.90;999.90;;;17.50;99.90;;;;;;5499092;25;19994;-68
2024/04/11 11:07:23;;;;;;;1999.90;999.90;;;17.20;99.90;;;;;;5501358;25;20338;-69
2024/04/11 11:09:51;;;;;;;1999.90;999.90;;;16.80;99.90;;;;;;5504685;25;20002;-71
2024/04/11 11:12:23;;;;;;;1999.90;999.90;;;16.40;99.90;;;;;;5501583;25;20461;-71
2024/04/11 11:14:49;;;;;;;1999.90;999.90;;;16.40;99.90;;;;;;5514140;25;20439;-68
2024/04/11 11:17:18;;;;;;;1999.90;999.90;;;16.30;99.90;;;;;;5510159;25;20029;-68
2024/04/11 11:19:50;;;;;;;1999.90;999.90;;;16.10;99.90;;;;;;5495992;25;20004;-71
2024/04/11 11:22:30;;;;;;;1999.90;999.90;;;16.10;99.90;;;;;;5516915;25;20065;-71
2024/04/11 11:25:00;;;;;;;1999.90;999.90;;;16.20;99.90;;;;;;5515871;25;20347;-71
2024/04/11 11:27:31;;;;;;;1999.90;999.90;;;16.30;99.90;;;;;;5518016;26;20016;-68
2024/04/11 11:29:57;;;;;;;1999.90;999.90;;;16.40;99.90;;;;;;5509739;25;19997;-69
2024/04/11 11:32:25;;;;;;;1999.90;999.90;;;16.80;99.90;;;;;;5516886;26;20423;-70
2024/04/11 11:34:52;;;;;;;1999.90;999.90;;;16.70;99.90;;;;;;5510789;26;20558;-69
2024/04/11 11:37:21;;;;;;;1999.90;999.90;;;16.60;99.90;;;;;;5512530;25;20012;-68
2024/04/11 11:39:55;;;;;;;1999.90;999.90;;;16.50;99.90;;;;;;5518088;25;20356;-68
2024/04/11 11:42:26;;;;;;;1999.90;999.90;;;16.70;99.90;;;;;;5513937;26;20225;-70
2024/04/11 11:47:33;;;;;;;;;;;16.50;99.90;;;;;;5516221;26;20085;-68
2024/04/11 11:50:17;;;;;;;1999.90;999.90;;;16.50;99.90;;;;;;5514046;26;20262;-71
2024/04/11 11:52:45;;;;;;;1999.90;999.90;;;16.70;99.90;;;;;;5518448;26;20121;-68
2024/04/11 11:55:16;;;;;;;1999.90;999.90;;;16.40;99.90;;;;;;5514154;25;20449;-68
2024/04/11 11:57:43;;;;;;;1999.90;999.90;;;16.70;99.90;;;;;;5514478;25;20005;-69
2024/04/11 12:00:19;;;;;;;1999.90;999.90;;;16.90;99.90;;;;;;5526591;25;20074;-68
2024/04/11 12:02:51;;;;;;;1999.90;999.90;;;16.80;99.90;;;;;;5518830;26;20479;-71
2024/04/11 12:05:23;;;;;;;1999.90;999.90;;;16.80;99.90;;;;;;5498334;25;20005;-70
2024/04/11 12:07:50;;;;;;;1999.90;999.90;;;16.90;99.90;;;;;;5539077;25;20448;-68
2024/04/11 12:10:16;;;;;;;1999.90;999.90;;;16.80;99.90;;;;;;5510898;26;20016;-68
2024/04/11 12:12:43;;;;;;;1999.90;999.90;;;16.70;99.90;;;;;;5510177;26;20009;-69
2024/04/11 12:15:09;;;;;;;1999.90;999.90;;;16.60;99.90;;;;;;5506733;25;19998;-69